Time;durP1;ratioP1;P1;durP2;ratioP2;P2;SDS_P1;SDS_P2;PMS_P1;PMS_P2;Temp;Humidity;BMP_temperature;BMP_pressure;BME280_temperature;BME280_humidity;BME280_pressure;Samples;Min_cycle;Max_cycle;Signal;HPM_P1;HPM_P2
2023/01/09 00:01:50;;;;;;;0.30;0.30;;;;;;;8.90;75.93;98907.38;5126382;28;20034;-82
2023/01/09 00:04:20;;;;;;;0.30;0.30;;;;;;;8.99;75.37;98906.06;5138009;28;20323;-82
2023/01/09 00:06:54;;;;;;;0.50;0.50;;;;;;;9.00;74.97;98915.63;5137146;28;20074;-82
2023/01/09 00:09:25;;;;;;;0.30;0.30;;;;;;;9.00;74.79;98907.78;5129861;28;20031;-82
2023/01/09 00:11:56;;;;;;;0.20;0.20;;;;;;;8.95;75.33;98910.63;5136773;28;20050;-82
2023/01/09 00:14:26;;;;;;;0.30;0.30;;;;;;;9.02;74.86;98905.94;5142123;28;20054;-82
2023/01/09 00:16:57;;;;;;;0.20;0.20;;;;;;;8.75;75.54;98916.00;5142319;28;20259;-82
2023/01/09 00:19:27;;;;;;;0.20;0.20;;;;;;;8.72;75.92;98913.50;5156802;28;20041;-83
2023/01/09 00:21:58;;;;;;;0.30;0.30;;;;;;;8.72;76.26;98900.44;5118267;28;20121;-82
2023/01/09 00:24:28;;;;;;;0.20;0.20;;;;;;;8.73;75.44;98916.03;5137559;28;20129;-82
2023/01/09 00:26:59;;;;;;;0.20;0.20;;;;;;;8.68;75.69;98901.53;5156658;28;20412;-82
2023/01/09 00:29:29;;;;;;;0.30;0.30;;;;;;;8.59;75.74;98906.28;5124258;28;20034;-82
2023/01/09 00:32:00;;;;;;;0.25;0.25;;;;;;;8.47;75.97;98901.63;5121022;28;20107;-82
2023/01/09 00:34:30;;;;;;;0.30;0.30;;;;;;;8.44;75.72;98915.66;5123264;28;20039;-82
2023/01/09 00:37:01;;;;;;;0.20;0.20;;;;;;;8.43;75.29;98919.19;5159639;28;20679;-81
2023/01/09 00:39:31;;;;;;;0.30;0.30;;;;;;;8.36;75.47;98923.00;5143370;28;20030;-82
2023/01/09 00:42:02;;;;;;;0.38;0.38;;;;;;;8.38;75.69;98930.75;5138982;28;20034;-83
2023/01/09 00:44:38;;;;;;;0.30;0.30;;;;;;;8.40;75.44;98928.94;5148756;28;20065;-81
2023/01/09 00:47:17;;;;;;;0.20;0.20;;;;;;;8.33;75.53;98931.84;5161274;28;20034;-81
2023/01/09 00:49:49;;;;;;;0.30;0.30;;;;;;;8.16;76.34;98934.38;5148390;28;20026;-81
2023/01/09 00:52:21;;;;;;;0.30;0.30;;;;;;;8.22;76.48;98925.41;5144945;28;20054;-81
2023/01/09 00:54:51;;;;;;;0.30;0.30;;;;;;;8.11;76.90;98931.09;5160568;28;20503;-81
2023/01/09 00:57:22;;;;;;;0.30;0.30;;;;;;;8.11;76.80;98925.88;5159510;28;20042;-80
2023/01/09 00:59:53;;;;;;;0.30;0.30;;;;;;;7.96;77.52;98928.28;5158168;28;20030;-81
2023/01/09 01:02:23;;;;;;;0.30;0.30;;;;;;;8.10;76.80;98932.88;5126642;28;20033;-81
2023/01/09 01:07:47;;;;;;;0.30;0.30;;;;;;;8.01;76.78;98942.00;5112460;28;20414;-81
2023/01/09 01:10:22;;;;;;;0.30;0.30;;;;;;;8.01;76.71;98938.53;5126847;28;20042;-83
2023/01/09 01:12:52;;;;;;;0.25;0.25;;;;;;;7.95;77.02;98938.81;5157469;28;20030;-81
2023/01/09 01:15:24;;;;;;;1.55;0.85;;;;;;;7.95;77.13;98949.25;5127218;28;20093;-82
2023/01/09 01:17:56;;;;;;;0.30;0.30;;;;;;;7.96;77.16;98945.72;5136986;28;20030;-82
2023/01/09 01:20:26;;;;;;;0.30;0.30;;;;;;;7.94;77.64;98947.56;5138915;28;20031;-81
2023/01/09 01:22:57;;;;;;;0.30;0.30;;;;;;;7.91;77.60;98953.78;5138184;28;20054;-81
2023/01/09 01:25:27;;;;;;;0.25;0.25;;;;;;;7.86;77.85;98955.72;5152357;28;20042;-81
2023/01/09 01:27:58;;;;;;;0.30;0.30;;;;;;;7.93;77.68;98959.78;5126461;28;20034;-81
2023/01/09 01:30:30;;;;;;;0.30;0.30;;;;;;;7.97;77.82;98955.25;5155362;28;20106;-80
2023/01/09 01:33:00;;;;;;;0.30;0.30;;;;;;;7.92;78.02;98959.81;5145190;28;20038;-81
2023/01/09 01:35:31;;;;;;;0.20;0.20;;;;;;;7.89;77.94;98955.59;5139718;28;20405;-82
2023/01/09 01:38:01;;;;;;;0.30;0.30;;;;;;;7.94;77.90;98958.00;5124625;28;20646;-81
2023/01/09 01:40:33;;;;;;;0.30;0.30;;;;;;;7.92;78.04;98955.47;5147636;28;20089;-79
2023/01/09 01:43:03;;;;;;;0.40;0.40;;;;;;;7.83;78.10;98966.31;5137245;28;20033;-80
2023/01/09 01:45:34;;;;;;;0.30;0.30;;;;;;;7.76;78.73;98967.50;5156654;28;20976;-81
2023/01/09 01:48:09;;;;;;;0.30;0.30;;;;;;;7.75;78.57;98971.03;5138726;28;20066;-82
2023/01/09 01:51:18;;;;;;;0.30;0.30;;;;;;;7.74;78.69;98980.59;5139389;28;20038;-80
2023/01/09 01:53:53;;;;;;;0.35;0.35;;;;;;;7.74;78.39;98985.81;5060038;29;20103;-81
2023/01/09 01:56:37;;;;;;;0.30;0.30;;;;;;;7.77;78.04;98990.09;5125789;28;20588;-80
2023/01/09 01:59:29;;;;;;;0.30;0.30;;;;;;;7.80;77.91;98990.81;5140129;28;20027;-81
2023/01/09 02:02:01;;;;;;;0.30;0.30;;;;;;;7.77;77.71;98992.69;5152912;28;20053;-80
2023/01/09 02:04:35;;;;;;;0.43;0.43;;;;;;;7.74;78.02;98992.81;5141049;28;20872;-82
2023/01/09 02:07:08;;;;;;;0.30;0.30;;;;;;;7.67;78.12;98997.44;5124386;28;20042;-82
2023/01/09 02:09:43;;;;;;;0.30;0.30;;;;;;;7.84;77.18;99002.78;5136256;28;20763;-81
2023/01/09 02:12:16;;;;;;;0.30;0.30;;;;;;;7.64;77.71;99001.03;5125637;28;20041;-81
2023/01/09 02:14:48;;;;;;;0.30;0.30;;;;;;;7.61;78.12;98997.72;5141388;28;20118;-81
2023/01/09 02:17:30;;;;;;;0.30;0.30;;;;;;;7.71;77.57;98994.66;5127434;28;20030;-81
2023/01/09 02:20:16;;;;;;;0.20;0.20;;;;;;;7.66;77.60;98990.53;5147827;28;20041;-81
2023/01/09 02:22:55;;;;;;;0.30;0.30;;;;;;;7.58;77.44;98988.25;5164027;28;20030;-81
2023/01/09 02:25:54;;;;;;;1.27;0.50;;;;;;;7.53;77.67;98998.91;5132123;28;20045;-82
2023/01/09 02:28:58;;;;;;;0.20;0.20;;;;;;;7.56;77.38;98995.31;5142293;28;20116;-81
2023/01/09 02:31:59;;;;;;;0.30;0.30;;;;;;;7.41;78.11;98999.38;5152476;28;20963;-81
2023/01/09 02:34:40;;;;;;;0.30;0.30;;;;;;;7.39;78.16;99016.91;5142090;28;20076;-81
2023/01/09 02:37:20;;;;;;;0.30;0.30;;;;;;;7.49;77.46;99020.81;5140900;28;20622;-81
2023/01/09 02:40:01;;;;;;;0.30;0.30;;;;;;;7.39;78.52;99020.34;5157519;28;20022;-80
2023/01/09 02:42:35;;;;;;;1.75;1.42;;;;;;;7.31;78.42;99024.19;5123345;28;20441;-81
2023/01/09 02:45:05;;;;;;;0.30;0.30;;;;;;;7.30;78.25;99017.28;5136256;28;20089;-80
2023/01/09 02:47:43;;;;;;;0.30;0.30;;;;;;;7.31;78.60;99017.19;5145534;28;20022;-81
2023/01/09 02:50:37;;;;;;;0.30;0.30;;;;;;;7.30;78.78;99004.22;5134727;28;20053;-81
2023/01/09 02:53:35;;;;;;;0.30;0.30;;;;;;;7.28;78.95;99006.03;5138498;28;20043;-80
2023/01/09 02:56:23;;;;;;;0.88;0.88;;;;;;;7.29;78.43;99003.34;5157125;28;20045;-82
2023/01/09 02:59:02;;;;;;;0.38;0.38;;;;;;;7.32;78.42;99012.81;5127028;28;20034;-81
2023/01/09 03:01:55;;;;;;;0.30;0.30;;;;;;;7.23;78.62;99012.28;5152933;28;20030;-80
2023/01/09 03:04:33;;;;;;;0.35;0.35;;;;;;;7.20;79.00;99015.03;5150331;28;20500;-80
2023/01/09 03:07:13;;;;;;;0.30;0.30;;;;;;;7.22;78.52;99014.97;5145455;28;20073;-81
2023/01/09 03:09:46;;;;;;;0.30;0.30;;;;;;;7.20;78.19;99024.59;5144746;28;20456;-81
2023/01/09 03:12:19;;;;;;;;;;;;;;;7.11;77.99;99014.56;5148148;28;20096;-80
2023/01/09 03:14:55;;;;;;;0.30;0.30;;;;;;;7.08;78.26;99010.28;5159815;28;20012;-80
2023/01/09 03:17:36;;;;;;;0.30;0.30;;;;;;;7.09;77.56;99018.09;5146896;28;20054;-81
2023/01/09 03:20:10;;;;;;;5.32;1.33;;;;;;;7.07;77.71;99024.25;5118882;28;20026;-80
2023/01/09 03:22:52;;;;;;;0.30;0.30;;;;;;;7.05;77.47;99026.09;5136527;28;20096;-80
2023/01/09 03:25:23;;;;;;;0.30;0.30;;;;;;;7.03;77.14;99023.50;5141414;28;20034;-79
2023/01/09 03:28:02;;;;;;;0.90;0.75;;;;;;;7.09;77.01;99030.25;5134753;28;20590;-80
2023/01/09 03:30:35;;;;;;;0.50;0.50;;;;;;;7.03;77.08;99031.34;5138564;28;20089;-81
2023/01/09 03:33:06;;;;;;;0.30;0.30;;;;;;;7.05;76.82;99033.91;5137501;28;20039;-81
2023/01/09 03:35:37;;;;;;;0.30;0.30;;;;;;;6.92;77.13;99031.78;5134546;28;20045;-81
2023/01/09 03:38:07;;;;;;;0.30;0.30;;;;;;;6.97;76.84;99028.97;5138999;28;20140;-80
2023/01/09 03:40:38;;;;;;;0.98;0.98;;;;;;;7.05;76.91;99029.53;5131735;28;20661;-80
2023/01/09 03:43:09;;;;;;;0.20;0.20;;;;;;;7.21;76.46;99040.22;5144740;28;20084;-80
2023/01/09 03:45:41;;;;;;;7.28;1.85;;;;;;;7.22;75.62;99041.03;5150828;28;20287;-79
2023/01/09 03:48:12;;;;;;;0.30;0.30;;;;;;;7.29;75.54;99045.09;5136019;28;20069;-80
2023/01/09 03:50:44;;;;;;;0.30;0.30;;;;;;;7.32;75.31;99036.28;5124131;28;20043;-81
2023/01/09 03:53:15;;;;;;;0.77;0.77;;;;;;;7.35;75.65;99044.00;5145566;28;20572;-81
2023/01/09 03:55:48;;;;;;;0.30;0.30;;;;;;;7.33;74.76;99045.81;5145607;28;20041;-81
2023/01/09 03:58:20;;;;;;;0.30;0.30;;;;;;;7.30;74.81;99043.34;5139602;28;20094;-80
2023/01/09 04:00:56;;;;;;;0.38;0.38;;;;;;;7.24;74.64;99047.91;5159120;28;20034;-79
2023/01/09 04:03:26;;;;;;;0.30;0.30;;;;;;;7.34;74.06;99047.53;5158551;28;20636;-80
2023/01/09 04:05:57;;;;;;;5.80;0.90;;;;;;;7.27;73.97;99046.94;5141637;28;20057;-81
2023/01/09 04:08:27;;;;;;;0.30;0.30;;;;;;;7.45;74.66;99052.31;5157242;28;20037;-81
2023/01/09 04:10:58;;;;;;;4.78;1.05;;;;;;;7.43;74.43;99054.97;5142544;28;20042;-81
2023/01/09 04:13:28;;;;;;;0.30;0.30;;;;;;;7.51;74.41;99060.75;5141597;28;20046;-81
2023/01/09 04:15:59;;;;;;;0.65;0.65;;;;;;;7.49;74.27;99061.72;5141882;28;20038;-81
2023/01/09 04:18:29;;;;;;;0.30;0.30;;;;;;;7.56;74.38;99069.22;5122001;28;20034;-80
2023/01/09 04:21:00;;;;;;;0.30;0.30;;;;;;;7.38;73.43;99070.81;5122883;28;20058;-80
2023/01/09 04:23:30;;;;;;;0.30;0.30;;;;;;;7.36;73.88;99071.81;5140618;28;20096;-81
2023/01/09 04:26:01;;;;;;;0.30;0.30;;;;;;;7.40;73.57;99075.97;5159953;28;20058;-80
2023/01/09 04:28:32;;;;;;;0.60;0.60;;;;;;;7.40;73.46;99078.59;5157450;28;20062;-81
2023/01/09 04:31:04;;;;;;;0.30;0.30;;;;;;;7.29;73.77;99075.56;5146258;28;20109;-81
2023/01/09 04:33:35;;;;;;;0.30;0.30;;;;;;;7.31;73.78;99076.38;5140178;28;20084;-83
2023/01/09 04:36:06;;;;;;;0.30;0.30;;;;;;;7.15;73.95;99079.56;5121600;28;20409;-81
2023/01/09 04:38:36;;;;;;;0.30;0.30;;;;;;;7.21;73.89;99079.34;5157834;28;20037;-80
2023/01/09 04:41:07;;;;;;;0.50;0.50;;;;;;;7.16;73.61;99083.88;5120519;28;20053;-81
2023/01/09 04:43:41;;;;;;;0.30;0.30;;;;;;;7.15;73.92;99081.34;5142048;28;20034;-80
2023/01/09 04:46:11;;;;;;;0.40;0.40;;;;;;;7.25;73.62;99073.06;5154023;28;20049;-81
2023/01/09 04:48:41;;;;;;;0.35;0.35;;;;;;;7.20;73.33;99077.63;5137237;28;20440;-80
2023/01/09 04:51:12;;;;;;;0.30;0.30;;;;;;;7.05;73.38;99089.50;5138710;28;20095;-81
2023/01/09 04:53:42;;;;;;;17.88;1.48;;;;;;;7.03;73.85;99087.88;5122034;28;20532;-80
2023/01/09 04:56:13;;;;;;;0.85;0.85;;;;;;;7.01;73.99;99089.69;5141344;28;20038;-80
2023/01/09 04:58:43;;;;;;;0.40;0.40;;;;;;;7.02;73.81;99088.78;5158000;28;20070;-81
2023/01/09 05:01:14;;;;;;;0.30;0.30;;;;;;;6.89;73.88;99097.09;5125635;28;20043;-81
2023/01/09 05:03:44;;;;;;;0.30;0.30;;;;;;;6.98;73.54;99095.03;5133606;28;20025;-80
2023/01/09 05:06:15;;;;;;;0.30;0.30;;;;;;;7.03;73.63;99087.88;5133151;28;20038;-81
2023/01/09 05:08:45;;;;;;;0.20;0.20;;;;;;;7.07;73.82;99092.06;5125174;28;20045;-81
2023/01/09 05:11:15;;;;;;;0.30;0.30;;;;;;;6.99;73.90;99099.31;5154889;28;20394;-81
2023/01/09 05:13:46;;;;;;;0.30;0.30;;;;;;;7.04;73.86;99092.19;5135648;28;20026;-81
2023/01/09 05:16:17;;;;;;;0.30;0.30;;;;;;;7.08;73.43;99093.75;5123128;28;20088;-80
2023/01/09 05:18:47;;;;;;;0.30;0.30;;;;;;;7.11;73.43;99093.66;5142098;28;20073;-80
2023/01/09 05:21:18;;;;;;;0.50;0.50;;;;;;;7.16;73.71;99099.53;5152521;28;20081;-78
2023/01/09 05:23:49;;;;;;;0.30;0.30;;;;;;;7.16;73.61;99099.53;5144950;28;20443;-80
2023/01/09 05:26:23;;;;;;;0.30;0.30;;;;;;;7.02;73.06;99105.28;5129509;28;20127;-80
2023/01/09 05:28:57;;;;;;;0.30;0.30;;;;;;;7.19;73.79;99099.41;5155485;28;20721;-80
2023/01/09 05:31:27;;;;;;;0.38;0.38;;;;;;;7.23;73.37;99110.56;5121485;28;20089;-80
2023/01/09 05:33:59;;;;;;;8.25;0.60;;;;;;;7.20;73.34;99108.94;5156227;28;20030;-79
2023/01/09 05:36:30;;;;;;;0.57;0.57;;;;;;;7.27;73.61;99099.13;5154316;28;20248;-79
2023/01/09 05:39:01;;;;;;;0.30;0.30;;;;;;;7.21;73.49;99110.66;5144920;28;20102;-80
2023/01/09 05:41:32;;;;;;;0.30;0.30;;;;;;;7.17;73.54;99110.81;5174516;28;20142;-78
2023/01/09 05:44:03;;;;;;;0.40;0.40;;;;;;;7.30;73.48;99113.81;5159730;28;20037;-79
2023/01/09 05:46:34;;;;;;;0.30;0.30;;;;;;;7.19;73.14;99109.00;5165920;28;20076;-80
2023/01/09 05:49:04;;;;;;;1.40;0.47;;;;;;;7.19;73.65;99112.47;5148591;28;20034;-79
2023/01/09 05:51:35;;;;;;;0.30;0.30;;;;;;;7.16;73.87;99112.56;5149158;28;20101;-81
2023/01/09 05:54:06;;;;;;;0.77;0.77;;;;;;;7.25;73.44;99112.22;5146769;28;20025;-80
2023/01/09 05:56:36;;;;;;;0.30;0.30;;;;;;;7.31;73.37;99116.34;5155907;28;20046;-79
2023/01/09 05:59:07;;;;;;;3.00;0.82;;;;;;;7.38;73.85;99111.75;5145407;28;20034;-81
2023/01/09 06:01:37;;;;;;;0.38;0.38;;;;;;;7.35;73.28;99117.06;5142932;28;20049;-81
2023/01/09 06:04:08;;;;;;;1.17;1.17;;;;;;;7.38;73.48;99116.97;5163218;28;20030;-81
2023/01/09 06:06:39;;;;;;;0.30;0.30;;;;;;;7.31;73.54;99118.94;5140183;28;20046;-80
2023/01/09 06:09:10;;;;;;;0.35;0.35;;;;;;;7.38;73.95;99124.78;5122421;28;20031;-80
2023/01/09 06:11:41;;;;;;;0.30;0.30;;;;;;;7.34;73.73;99116.22;5135725;28;20042;-81
2023/01/09 06:14:11;;;;;;;0.45;0.45;;;;;;;7.34;73.80;99117.97;5131978;28;20491;-80
2023/01/09 06:16:42;;;;;;;0.30;0.30;;;;;;;7.38;73.90;99119.56;5122550;28;20030;-81
2023/01/09 06:19:12;;;;;;;0.30;0.30;;;;;;;7.32;73.71;99122.41;5120246;28;20715;-82
2023/01/09 06:21:43;;;;;;;0.40;0.40;;;;;;;7.23;74.02;99121.84;5118507;28;20041;-80
2023/01/09 06:24:13;;;;;;;0.30;0.30;;;;;;;7.31;73.71;99115.50;5153943;28;20076;-81
2023/01/09 06:26:44;;;;;;;0.30;0.30;;;;;;;7.35;73.87;99117.94;5137442;28;20228;-81
2023/01/09 06:29:15;;;;;;;0.40;0.40;;;;;;;7.36;73.87;99105.72;5155999;28;20045;-80
2023/01/09 06:31:45;;;;;;;0.30;0.30;;;;;;;7.27;74.05;99121.75;5121089;28;20101;-80
2023/01/09 06:34:15;;;;;;;0.47;0.47;;;;;;;7.30;73.95;99119.84;5159442;28;20046;-81
2023/01/09 06:36:46;;;;;;;0.57;0.52;;;;;;;7.39;74.04;99121.28;5137639;28;20034;-81
2023/01/09 06:39:16;;;;;;;0.63;0.63;;;;;;;7.30;74.23;99130.28;5132460;28;20046;-81
2023/01/09 06:41:47;;;;;;;0.40;0.40;;;;;;;7.32;73.84;99127.63;5156293;28;20026;-80
2023/01/09 06:44:17;;;;;;;3.13;1.38;;;;;;;7.29;73.94;99127.75;5135580;28;20045;-80
2023/01/09 06:46:48;;;;;;;0.30;0.30;;;;;;;7.38;73.71;99128.22;5119577;28;20046;-82
2023/01/09 06:49:22;;;;;;;0.80;0.80;;;;;;;7.35;73.94;99124.91;5134777;28;20066;-81
2023/01/09 06:51:52;;;;;;;0.90;0.73;;;;;;;7.41;73.66;99116.81;5156761;28;20030;-80
2023/01/09 06:54:23;;;;;;;0.85;0.85;;;;;;;7.34;74.11;99125.81;5128494;28;20064;-81
2023/01/09 06:56:54;;;;;;;0.30;0.30;;;;;;;7.31;73.64;99120.72;5136268;28;20045;-81
2023/01/09 06:59:25;;;;;;;0.57;0.52;;;;;;;7.41;73.48;99122.03;5132326;28;20041;-79
2023/01/09 07:01:55;;;;;;;0.38;0.38;;;;;;;7.41;73.26;99124.66;5161182;28;20054;-81
2023/01/09 07:04:26;;;;;;;0.57;0.57;;;;;;;7.42;73.70;99128.97;5153239;28;20038;-82
2023/01/09 07:06:56;;;;;;;0.40;0.40;;;;;;;7.41;73.28;99124.66;5133876;28;20045;-81
2023/01/09 07:09:27;;;;;;;7.32;1.67;;;;;;;7.43;73.50;99125.44;5145059;28;20034;-81
2023/01/09 07:11:57;;;;;;;0.60;0.60;;;;;;;7.49;73.26;99121.75;5144636;28;20038;-80
2023/01/09 07:14:28;;;;;;;1.02;1.02;;;;;;;7.45;72.95;99117.53;5142608;28;20050;-82
2023/01/09 07:16:59;;;;;;;0.40;0.40;;;;;;;7.50;72.64;99113.84;5152711;28;20183;-82
2023/01/09 07:19:29;;;;;;;0.50;0.50;;;;;;;7.47;73.31;99110.50;5146021;28;20052;-81
2023/01/09 07:22:00;;;;;;;0.30;0.30;;;;;;;7.43;72.58;99116.78;5128810;28;20042;-82
2023/01/09 07:24:30;;;;;;;0.77;0.77;;;;;;;7.51;72.99;99118.16;5148099;28;20724;-81
2023/01/09 07:27:01;;;;;;;0.30;0.30;;;;;;;7.50;72.78;99119.06;5154394;28;20050;-81
2023/01/09 07:29:32;;;;;;;0.30;0.30;;;;;;;7.48;73.11;99117.44;5156993;28;20054;-81
2023/01/09 07:32:03;;;;;;;0.60;0.60;;;;;;;7.50;72.94;99123.44;5154535;28;20427;-82
2023/01/09 07:34:33;;;;;;;0.40;0.40;;;;;;;7.51;72.56;99120.75;5123969;28;20041;-82
2023/01/09 07:37:04;;;;;;;0.60;0.60;;;;;;;7.49;72.45;99135.63;5154932;28;20031;-81
2023/01/09 07:39:34;;;;;;;0.93;0.93;;;;;;;7.51;72.62;99127.75;5137161;28;20030;-81
2023/01/09 07:42:06;;;;;;;0.40;0.40;;;;;;;7.50;72.60;99128.66;5138211;28;20038;-82
2023/01/09 07:44:36;;;;;;;0.30;0.30;;;;;;;7.57;72.86;99132.72;5134114;28;20053;-81
2023/01/09 07:47:07;;;;;;;0.40;0.40;;;;;;;7.60;71.98;99148.28;5128103;28;20042;-81
2023/01/09 07:49:37;;;;;;;0.30;0.30;;;;;;;7.48;72.18;99144.38;5138557;28;20524;-81
2023/01/09 07:52:08;;;;;;;0.30;0.30;;;;;;;7.53;72.42;99158.09;5132344;28;20111;-82
2023/01/09 07:54:38;;;;;;;0.98;0.88;;;;;;;7.49;72.66;99156.50;5155444;28;20034;-82
2023/01/09 07:57:09;;;;;;;5.32;2.00;;;;;;;7.57;72.46;99151.84;5154224;28;20101;-81
2023/01/09 07:59:39;;;;;;;0.30;0.30;;;;;;;7.56;72.30;99147.53;5139055;28;20038;-81
2023/01/09 08:02:11;;;;;;;29.27;1.25;;;;;;;7.60;72.65;99147.41;5129836;28;20518;-81
2023/01/09 08:04:41;;;;;;;4.70;1.67;;;;;;;7.46;72.46;99146.22;5142740;28;20114;-81
2023/01/09 08:07:12;;;;;;;1.10;1.00;;;;;;;7.54;72.56;99159.81;5159123;28;20121;-82
2023/01/09 08:09:42;;;;;;;0.28;0.28;;;;;;;7.53;72.61;99149.41;5130325;28;20030;-81
2023/01/09 08:12:13;;;;;;;1.85;1.63;;;;;;;7.60;73.02;99156.09;5138701;28;20030;-80
2023/01/09 08:14:43;;;;;;;2.38;1.38;;;;;;;7.55;72.15;99156.28;5150654;28;20745;-79
2023/01/09 08:17:13;;;;;;;1.60;1.50;;;;;;;7.55;72.65;99161.50;5147039;28;20038;-79
2023/01/09 08:19:44;;;;;;;2.55;1.35;;;;;;;7.61;72.51;99164.78;5124336;28;20027;-80
2023/01/09 08:22:14;;;;;;;0.20;0.20;;;;;;;7.62;72.67;99169.94;5157089;28;21206;-80
2023/01/09 08:24:45;;;;;;;0.40;0.40;;;;;;;7.75;72.27;99161.63;5162293;28;20035;-80
2023/01/09 08:27:15;;;;;;;0.30;0.30;;;;;;;7.68;72.16;99182.75;5160515;28;20060;-79
2023/01/09 08:29:46;;;;;;;0.30;0.30;;;;;;;7.63;72.19;99178.63;5140154;28;20320;-80
2023/01/09 08:32:16;;;;;;;0.57;0.57;;;;;;;7.66;72.29;99183.69;5140724;28;20030;-80
2023/01/09 08:34:47;;;;;;;0.32;0.32;;;;;;;7.68;72.29;99185.38;5162259;28;20033;-80
2023/01/09 08:37:17;;;;;;;0.38;0.38;;;;;;;7.65;72.30;99180.25;5141639;28;20033;-80
2023/01/09 08:39:48;;;;;;;4.53;0.73;;;;;;;7.70;71.92;99182.69;5165155;28;20113;-80
2023/01/09 08:47:59;;;;;;;0.50;0.50;;;;;;;7.80;72.23;99197.09;5148980;28;20744;-80
2023/01/09 08:50:30;;;;;;;0.30;0.30;;;;;;;7.69;72.19;99201.88;5126607;28;20039;-80
2023/01/09 08:53:00;;;;;;;0.30;0.30;;;;;;;7.72;72.55;99199.16;5125603;28;20038;-80
2023/01/09 08:55:31;;;;;;;0.30;0.30;;;;;;;7.74;72.56;99202.53;5139305;28;20065;-79
2023/01/09 08:58:01;;;;;;;1.08;1.00;;;;;;;7.78;72.68;99203.25;5125080;28;20054;-80
2023/01/09 09:00:32;;;;;;;0.30;0.30;;;;;;;7.74;72.29;99207.75;5155659;28;20070;-80
2023/01/09 09:03:03;;;;;;;0.90;0.90;;;;;;;7.90;72.28;99212.34;5136129;28;20479;-80
2023/01/09 09:05:33;;;;;;;0.30;0.30;;;;;;;7.78;72.65;99218.91;5153806;28;20510;-80
2023/01/09 09:08:05;;;;;;;0.80;0.80;;;;;;;7.76;72.48;99232.03;5129782;28;20077;-81
2023/01/09 09:10:35;;;;;;;1.17;0.55;;;;;;;7.81;72.74;99224.88;5142322;28;20038;-80
2023/01/09 09:13:06;;;;;;;0.30;0.30;;;;;;;7.74;72.30;99227.78;5132763;28;20030;-80
2023/01/09 09:15:37;;;;;;;0.30;0.30;;;;;;;7.72;72.86;99239.16;5158722;28;20533;-80
2023/01/09 09:18:08;;;;;;;0.30;0.30;;;;;;;7.77;72.93;99241.56;5140371;28;20030;-80
2023/01/09 09:20:38;;;;;;;0.30;0.30;;;;;;;7.77;73.11;99235.53;5125235;28;20042;-80
2023/01/09 09:23:09;;;;;;;3.35;0.93;;;;;;;7.73;73.14;99237.38;5157806;28;20397;-81
2023/01/09 09:25:39;;;;;;;0.30;0.30;;;;;;;7.76;73.20;99237.25;5138009;28;20410;-80
2023/01/09 09:28:10;;;;;;;0.30;0.30;;;;;;;7.68;73.46;99248.03;5156982;28;20517;-80
2023/01/09 09:30:41;;;;;;;0.60;0.60;;;;;;;7.76;73.59;99239.88;5141671;28;20058;-80
2023/01/09 09:33:11;;;;;;;1.65;1.10;;;;;;;7.79;73.48;99238.91;5155831;28;20113;-80
2023/01/09 09:35:42;;;;;;;0.68;0.57;;;;;;;7.74;73.82;99240.84;5136731;28;20656;-80
2023/01/09 09:38:13;;;;;;;0.30;0.30;;;;;;;7.77;73.19;99244.19;5153878;28;20030;-81
2023/01/09 09:44:41;;;;;;;0.30;0.30;;;;;;;7.78;72.98;99251.13;5137218;28;20034;-81
2023/01/09 09:44:42;;;;;;;1.00;0.95;;;;;;;7.77;72.93;99262.47;5155135;28;20034;-81
2023/01/09 09:47:15;;;;;;;0.47;0.47;;;;;;;7.72;73.28;99277.47;5141228;28;20046;-80
2023/01/09 09:50:14;;;;;;;0.30;0.30;;;;;;;7.75;73.17;99281.72;5117758;28;20034;-80
2023/01/09 09:52:56;;;;;;;0.30;0.30;;;;;;;7.78;73.54;99287.66;5139378;28;20069;-80
2023/01/09 09:55:31;;;;;;;0.32;0.32;;;;;;;7.78;72.84;99292.03;5143707;28;20470;-81
2023/01/09 09:58:13;;;;;;;1.08;0.82;;;;;;;7.73;73.04;99289.59;5140384;28;20103;-81
2023/01/09 10:00:46;;;;;;;0.20;0.20;;;;;;;7.73;73.69;99297.41;5131893;28;20034;-80
2023/01/09 10:03:26;;;;;;;0.40;0.40;;;;;;;7.70;73.40;99301.00;5154095;28;20113;-80
2023/01/09 10:05:59;;;;;;;0.88;0.88;;;;;;;7.77;73.25;99306.03;5119146;28;20131;-81
2023/01/09 10:09:08;;;;;;;1.13;1.13;;;;;;;7.70;73.56;99305.38;5139983;28;20169;-80
2023/01/09 10:11:51;;;;;;;0.40;0.40;;;;;;;7.71;73.62;99312.31;5139267;28;20043;-80
2023/01/09 10:14:22;;;;;;;0.47;0.47;;;;;;;7.67;73.47;99311.59;5133795;28;20047;-80
2023/01/09 10:17:19;;;;;;;0.40;0.40;;;;;;;7.71;73.36;99320.16;5123962;28;20054;-80
2023/01/09 10:20:24;;;;;;;0.38;0.38;;;;;;;7.72;72.98;99308.81;5164746;28;20052;-80
2023/01/09 10:23:16;;;;;;;0.30;0.30;;;;;;;7.71;73.14;99313.16;5146820;28;20066;-81
2023/01/09 10:26:11;;;;;;;0.30;0.30;;;;;;;7.68;72.99;99322.88;5127873;28;20049;-81
2023/01/09 10:28:53;;;;;;;0.30;0.30;;;;;;;7.75;72.89;99319.09;5145764;28;20043;-80
2023/01/09 10:31:27;;;;;;;0.75;0.75;;;;;;;7.70;73.19;99311.44;5160979;28;20072;-80
2023/01/09 10:34:19;;;;;;;0.30;0.30;;;;;;;7.69;73.43;99308.91;5166821;28;20058;-80
2023/01/09 10:36:58;;;;;;;0.63;0.63;;;;;;;7.75;73.12;99320.88;5151531;28;20089;-81
2023/01/09 10:39:47;;;;;;;0.43;0.38;;;;;;;7.76;73.40;99331.25;5147648;28;20030;-80
2023/01/09 10:42:30;;;;;;;0.30;0.30;;;;;;;7.74;73.38;99327.84;5139872;28;20034;-80
2023/01/09 10:45:28;;;;;;;0.30;0.30;;;;;;;7.70;73.37;99327.13;5129233;28;20026;-81
2023/01/09 10:48:08;;;;;;;0.30;0.30;;;;;;;7.74;73.41;99322.63;5157900;28;20744;-80
2023/01/09 10:50:44;;;;;;;0.57;0.57;;;;;;;7.76;72.99;99323.44;5164221;28;20039;-80
2023/01/09 10:53:24;;;;;;;0.30;0.30;;;;;;;7.72;73.15;99320.09;5146474;28;20227;-80
2023/01/09 10:56:03;;;;;;;0.85;0.85;;;;;;;7.70;73.17;99326.28;5137945;28;20038;-79
2023/01/09 10:58:34;;;;;;;0.30;0.30;;;;;;;7.74;73.23;99333.06;5135613;28;20053;-81
2023/01/09 11:01:05;;;;;;;1.00;0.80;;;;;;;7.76;73.35;99328.66;5125252;28;20034;-80
2023/01/09 11:03:37;;;;;;;0.93;0.65;;;;;;;7.77;73.16;99330.34;5141679;28;20015;-81
2023/01/09 11:06:21;;;;;;;1.25;1.25;;;;;;;7.77;73.01;99330.34;5139948;28;20126;-81
2023/01/09 11:08:55;;;;;;;0.38;0.38;;;;;;;7.76;72.91;99333.88;5159739;28;20092;-81
2023/01/09 11:11:36;;;;;;;0.30;0.30;;;;;;;7.81;72.50;99331.91;5140296;28;20031;-81
2023/01/09 11:14:36;;;;;;;0.30;0.30;;;;;;;7.81;72.97;99328.47;5140344;28;20990;-81
2023/01/09 11:17:18;;;;;;;0.45;0.45;;;;;;;7.83;73.41;99324.06;5131902;28;20049;-81
2023/01/09 11:20:01;;;;;;;0.30;0.30;;;;;;;7.86;72.29;99327.41;5137992;28;20034;-79
2023/01/09 11:22:56;;;;;;;0.30;0.30;;;;;;;7.85;72.45;99325.69;5149889;28;20042;-80
2023/01/09 11:25:27;;;;;;;0.30;0.30;;;;;;;7.86;72.44;99322.16;5148362;28;20046;-81
2023/01/09 11:28:01;;;;;;;0.52;0.52;;;;;;;7.97;72.78;99323.53;5150951;28;20034;-80
2023/01/09 11:30:36;;;;;;;0.20;0.20;;;;;;;8.01;72.30;99332.94;5130569;28;20038;-79
2023/01/09 11:33:24;;;;;;;0.30;0.30;;;;;;;8.06;71.82;99330.97;5111964;28;20054;-80
2023/01/09 11:36:03;;;;;;;0.30;0.30;;;;;;;8.12;72.11;99337.72;5134822;28;20055;-81
2023/01/09 11:38:54;;;;;;;2.53;0.88;;;;;;;8.17;71.74;99334.03;5136999;28;20037;-80
2023/01/09 11:41:35;;;;;;;0.80;0.60;;;;;;;8.13;71.12;99345.53;5115250;28;20089;-81
2023/01/09 11:44:12;;;;;;;0.30;0.30;;;;;;;8.10;71.11;99342.19;5143039;28;20042;-80
2023/01/09 11:46:46;;;;;;;0.30;0.30;;;;;;;8.08;71.05;99363.13;5137942;28;20038;-80
2023/01/09 11:49:16;;;;;;;0.30;0.30;;;;;;;8.00;70.74;99349.50;5140403;28;20039;-81
2023/01/09 11:52:18;;;;;;;0.45;0.45;;;;;;;7.97;71.49;99367.94;5106006;28;20042;-80
2023/01/09 11:54:57;;;;;;;0.30;0.30;;;;;;;7.98;71.96;99365.25;5123204;28;20067;-80
2023/01/09 11:57:28;;;;;;;0.30;0.30;;;;;;;7.93;72.17;99375.03;5128355;28;20135;-80
2023/01/09 12:00:03;;;;;;;0.30;0.30;;;;;;;7.92;72.07;99372.47;5129388;28;20465;-80
2023/01/09 12:03:10;;;;;;;0.30;0.30;;;;;;;7.92;72.03;99388.13;5139714;28;20035;-82
2023/01/09 12:06:09;;;;;;;0.30;0.30;;;;;;;7.82;72.31;99393.69;5144250;28;20031;-81
2023/01/09 12:08:54;;;;;;;0.30;0.30;;;;;;;7.81;72.13;99397.19;5135589;28;20075;-80
2023/01/09 12:11:53;;;;;;;0.30;0.30;;;;;;;7.77;72.39;99402.63;5136566;28;20057;-80
2023/01/09 12:14:41;;;;;;;0.20;0.20;;;;;;;7.77;71.83;99400.84;5160235;28;20039;-79
2023/01/09 12:17:35;;;;;;;0.30;0.30;;;;;;;7.74;71.51;99408.78;5140149;28;20039;-81
2023/01/09 12:20:21;;;;;;;0.30;0.30;;;;;;;7.68;72.08;99412.50;5143060;28;20042;-80
2023/01/09 12:23:44;;;;;;;0.30;0.30;;;;;;;7.68;72.32;99401.19;5142375;28;20753;-82
2023/01/09 12:26:48;;;;;;;0.55;0.40;;;;;;;7.78;72.48;99401.69;5131686;28;20047;-84
2023/01/09 12:29:40;;;;;;;0.30;0.30;;;;;;;7.76;72.59;99393.91;5128661;28;20041;-83